Time;durP1;ratioP1;P1;durP2;ratioP2;P2;SDS_P1;SDS_P2;PMS_P1;PMS_P2;Temp;Humidity;BMP_temperature;BMP_pressure;BME280_temperature;BME280_humidity;BME280_pressure;Samples;Min_cycle;Max_cycle;Signal;HPM_P1;HPM_P2
2022/04/25 00:01:37;;;;;;;9.63;2.05;;;;;;;10.87;92.96;96893.92;1734008;83;21027;-85
2022/04/25 00:04:04;;;;;;;7.97;2.05;;;;;;;10.85;91.85;96886.53;1733635;83;21015;-85
2022/04/25 00:06:31;;;;;;;11.93;2.98;;;;;;;10.83;92.23;96882.62;1733876;83;21448;-85
2022/04/25 00:08:58;;;;;;;10.00;1.92;;;;;;;10.81;92.10;96873.87;1733868;83;21061;-85
2022/04/25 00:11:24;;;;;;;11.35;2.42;;;;;;;10.79;92.38;96870.45;1734200;83;21039;-85
2022/04/25 00:13:51;;;;;;;11.03;2.27;;;;;;;10.78;91.80;96862.56;1733886;83;21409;-84
2022/04/25 00:16:18;;;;;;;5.22;1.50;;;;;;;10.75;91.50;96854.78;1734450;83;21034;-84
2022/04/25 00:18:47;;;;;;;12.88;2.33;;;;;;;10.73;91.29;96852.20;1734190;83;21071;-85
2022/04/25 00:21:13;;;;;;;9.70;2.65;;;;;;;10.72;91.92;96853.14;1733852;83;21030;-85
2022/04/25 00:23:40;;;;;;;10.32;2.37;;;;;;;10.68;92.55;96866.14;1734089;83;21424;-85
2022/04/25 00:26:07;;;;;;;8.48;2.00;;;;;;;10.66;92.64;96867.98;1734232;83;20978;-85
2022/04/25 00:28:34;;;;;;;7.12;2.08;;;;;;;10.66;92.81;96873.29;1733970;83;21034;-84
2022/04/25 00:31:01;;;;;;;5.35;2.45;;;;;;;10.64;92.33;96868.55;1733968;83;21004;-84
2022/04/25 00:33:28;;;;;;;9.13;2.77;;;;;;;10.63;91.75;96844.31;1734000;83;21026;-84
2022/04/25 00:35:54;;;;;;;5.40;1.77;;;;;;;10.62;91.88;96849.19;1734149;83;21958;-84
2022/04/25 00:38:21;;;;;;;6.15;1.77;;;;;;;10.59;91.27;96842.25;1734603;83;21043;-84
2022/04/25 00:40:48;;;;;;;6.80;2.02;;;;;;;10.59;92.40;96853.33;1734118;83;20983;-84
2022/04/25 00:43:14;;;;;;;7.90;1.90;;;;;;;10.53;92.05;96859.32;1734580;83;21444;-84
2022/04/25 00:45:41;;;;;;;11.93;2.87;;;;;;;10.49;92.19;96863.05;1734199;83;21452;-84
2022/04/25 00:48:08;;;;;;;11.03;2.25;;;;;;;10.50;92.06;96864.75;1734250;83;20980;-85
2022/04/25 00:50:39;;;;;;;9.63;3.33;;;;;;;10.53;91.62;96855.80;1734150;83;21014;-84
2022/04/25 00:53:03;;;;;;;11.73;2.20;;;;;;;10.56;91.46;96853.02;1734015;83;20991;-84
2022/04/25 00:55:30;;;;;;;9.48;2.05;;;;;;;10.62;91.46;96850.52;1733760;83;21425;-84
2022/04/25 00:57:59;;;;;;;11.53;2.30;;;;;;;10.66;91.42;96850.77;1734027;83;21026;-84
2022/04/25 01:00:26;;;;;;;8.53;2.10;;;;;;;10.67;90.84;96845.40;1726550;83;21030;-84
2022/04/25 01:02:53;;;;;;;12.47;2.10;;;;;;;10.67;91.41;96844.07;1719827;83;20995;-84
2022/04/25 01:05:20;;;;;;;10.03;2.02;;;;;;;10.69;91.64;96839.58;1719570;83;21409;-84
2022/04/25 01:07:47;;;;;;;10.13;1.70;;;;;;;10.71;91.62;96835.50;1719544;83;21008;-84
2022/04/25 01:10:16;;;;;;;8.93;1.50;;;;;;;10.73;92.00;96831.00;1719842;83;20995;-84
2022/04/25 01:12:42;;;;;;;8.20;1.87;;;;;;;10.75;91.42;96831.77;1719676;83;21070;-85
2022/04/25 01:15:12;;;;;;;11.48;1.92;;;;;;;10.77;91.60;96832.58;1719665;83;21054;-84
2022/04/25 01:17:40;;;;;;;12.78;3.22;;;;;;;10.81;91.53;96827.97;1719664;83;21007;-84
2022/04/25 01:20:08;;;;;;;7.37;1.32;;;;;;;10.81;91.06;96824.84;1719432;83;20992;-83
2022/04/25 01:22:48;;;;;;;10.30;2.10;;;;;;;10.79;90.75;96828.50;1719815;83;20984;-84
2022/04/25 01:28:04;;;;;;;14.28;2.45;;;;;;;10.82;91.53;96817.30;1719477;83;21031;-84
2022/04/25 01:30:33;;;;;;;11.78;1.70;;;;;;;10.83;91.07;96810.19;1719594;83;20979;-84
2022/04/25 01:33:00;;;;;;;17.35;2.65;;;;;;;10.78;90.75;96805.13;1719518;83;21030;-85
2022/04/25 01:35:27;;;;;;;19.90;3.17;;;;;;;10.70;90.39;96804.64;1719394;83;21003;-84
2022/04/25 01:37:54;;;;;;;13.08;1.90;;;;;;;10.62;90.20;96801.05;1720110;82;21012;-84
2022/04/25 01:40:21;;;;;;;32.98;4.08;;;;;;;10.59;90.59;96803.00;1719589;83;21453;-84
2022/04/25 01:42:48;;;;;;;12.45;1.80;;;;;;;10.56;90.76;96806.66;1719852;83;21019;-84
2022/04/25 01:45:15;;;;;;;11.08;2.25;;;;;;;10.51;90.21;96803.38;1719241;83;21663;-84
2022/04/25 01:47:42;;;;;;;7.33;2.67;;;;;;;10.43;89.84;96808.56;1720048;83;20979;-84
2022/04/25 01:50:09;;;;;;;17.40;2.98;;;;;;;10.39;90.16;96808.28;1720021;83;21460;-85
2022/04/25 01:52:36;;;;;;;14.93;3.17;;;;;;;10.37;90.30;96799.56;1720226;83;21448;-84
2022/04/25 01:55:04;;;;;;;13.13;1.60;;;;;;;10.35;90.11;96792.63;1720258;83;20975;-84
2022/04/25 01:57:31;;;;;;;11.85;2.62;;;;;;;10.28;89.81;96790.73;1722473;83;20993;-84
2022/04/25 01:59:58;;;;;;;14.45;3.00;;;;;;;10.24;90.14;96787.83;1722941;81;21312;-85
2022/04/25 02:02:25;;;;;;;10.25;2.50;;;;;;;10.18;89.66;96790.33;1723130;83;21005;-85
2022/04/25 02:04:52;;;;;;;10.13;2.30;;;;;;;10.13;90.16;96789.20;1720120;83;21062;-85
2022/04/25 02:07:19;;;;;;;10.78;1.92;;;;;;;10.07;90.39;96790.83;1719786;83;21449;-85
2022/04/25 02:09:45;;;;;;;15.38;2.75;;;;;;;10.06;90.35;96796.19;1720057;83;20972;-84
2022/04/25 02:12:12;;;;;;;13.70;2.92;;;;;;;10.02;90.06;96780.44;1719834;83;21007;-84
2022/04/25 02:14:41;;;;;;;14.60;3.02;;;;;;;9.97;89.84;96769.20;1719327;83;21042;-85
2022/04/25 02:17:08;;;;;;;17.10;2.17;;;;;;;9.91;89.73;96769.50;1719429;83;21059;-84
2022/04/25 02:19:38;;;;;;;13.25;2.05;;;;;;;9.85;89.70;96778.58;1719824;83;20988;-84
2022/04/25 02:22:03;;;;;;;16.02;4.00;;;;;;;9.80;89.99;96779.73;1720127;83;21008;-84
2022/04/25 02:24:30;;;;;;;9.33;2.90;;;;;;;9.77;90.41;96784.70;1719925;83;21043;-84
2022/04/25 02:26:56;;;;;;;8.93;1.90;;;;;;;9.76;90.20;96792.26;1719237;83;21030;-84
2022/04/25 02:29:25;;;;;;;21.35;3.87;;;;;;;9.74;90.07;96783.06;1719281;83;20983;-84
2022/04/25 02:31:52;;;;;;;14.00;3.42;;;;;;;9.74;90.45;96780.42;1719862;83;20999;-84
2022/04/25 02:34:19;;;;;;;10.85;2.62;;;;;;;9.73;90.29;96767.25;1719828;83;20984;-84
2022/04/25 02:36:45;;;;;;;9.20;2.15;;;;;;;9.70;90.03;96775.31;1719903;83;20975;-83
2022/04/25 02:39:12;;;;;;;9.10;2.20;;;;;;;9.68;90.94;96792.58;1720076;83;21011;-84
2022/04/25 02:41:39;;;;;;;12.50;2.35;;;;;;;9.66;90.52;96797.55;1719734;83;21413;-84
2022/04/25 02:44:06;;;;;;;16.93;3.10;;;;;;;9.64;90.93;96788.38;1719651;83;21035;-85
2022/04/25 02:46:33;;;;;;;13.48;2.83;;;;;;;9.62;90.48;96778.31;1719848;83;21004;-84
2022/04/25 02:48:59;;;;;;;10.65;2.45;;;;;;;9.62;90.55;96784.92;1719637;83;20984;-84
2022/04/25 02:51:27;;;;;;;8.63;2.10;;;;;;;9.61;90.99;96780.58;1720008;83;21055;-84
2022/04/25 02:53:54;;;;;;;17.85;3.25;;;;;;;9.58;90.73;96781.57;1719871;83;20991;-84
2022/04/25 02:56:20;;;;;;;8.28;2.55;;;;;;;9.57;90.71;96787.80;1720279;83;21008;-84
2022/04/25 02:58:47;;;;;;;17.67;2.87;;;;;;;9.58;90.61;96792.16;1720006;83;20983;-84
2022/04/25 03:01:13;;;;;;;15.38;2.62;;;;;;;9.60;90.30;96785.48;1722639;82;21008;-84
2022/04/25 03:03:40;;;;;;;10.08;2.58;;;;;;;9.59;90.43;96778.47;1719856;83;21027;-85
2022/04/25 03:06:09;;;;;;;10.88;2.80;;;;;;;9.60;90.52;96775.73;1719732;83;21026;-84
2022/04/25 03:08:38;;;;;;;14.63;2.77;;;;;;;9.62;90.96;96769.05;1719788;83;20984;-84
2022/04/25 03:11:08;;;;;;;13.18;3.05;;;;;;;9.64;91.47;96774.67;1719795;83;21114;-85
2022/04/25 03:13:36;;;;;;;16.37;2.52;;;;;;;9.70;91.51;96773.99;1719837;83;21035;-84
2022/04/25 03:16:04;;;;;;;15.28;2.40;;;;;;;9.74;91.71;96782.19;1719960;83;21051;-84
2022/04/25 03:18:34;;;;;;;10.18;2.42;;;;;;;9.77;91.43;96774.96;1719553;83;21115;-84
2022/04/25 03:21:01;;;;;;;12.05;3.15;;;;;;;9.80;91.49;96781.90;1719762;83;21433;-85
2022/04/25 03:23:28;;;;;;;10.48;2.10;;;;;;;9.79;91.16;96780.67;1719934;83;20991;-85
2022/04/25 03:25:55;;;;;;;13.38;2.60;;;;;;;9.80;91.29;96768.67;1719907;83;21007;-84
2022/04/25 03:28:21;;;;;;;10.15;2.17;;;;;;;9.81;91.69;96769.54;1719599;83;21438;-84
2022/04/25 03:30:48;;;;;;;13.08;2.50;;;;;;;9.83;91.58;96758.41;1720052;83;21030;-85
2022/04/25 03:33:15;;;;;;;15.50;2.45;;;;;;;9.80;91.71;96762.05;1719859;83;21007;-85
2022/04/25 03:35:47;;;;;;;12.68;2.95;;;;;;;9.82;91.91;96757.57;1719429;83;20996;-85
2022/04/25 03:38:17;;;;;;;12.98;2.45;;;;;;;9.84;91.79;96750.41;1720060;83;21010;-83
2022/04/25 03:40:45;;;;;;;14.47;2.65;;;;;;;9.85;92.07;96769.31;1720012;83;21003;-82
2022/04/25 03:43:15;;;;;;;14.10;3.17;;;;;;;9.93;92.05;96783.54;1719870;83;21151;-83
2022/04/25 03:45:41;;;;;;;13.00;2.12;;;;;;;9.95;91.75;96772.86;1719964;83;21047;-83
2022/04/25 03:48:08;;;;;;;11.25;2.62;;;;;;;9.99;91.72;96773.98;1720051;83;20980;-83
2022/04/25 03:50:35;;;;;;;16.80;2.58;;;;;;;10.00;91.89;96765.55;1719337;83;21424;-83
2022/04/25 03:53:12;;;;;;;12.68;2.30;;;;;;;9.93;91.56;96781.34;1719428;83;20987;-83
2022/04/25 03:58:24;;;;;;;13.48;2.52;;;;;;;9.93;90.92;96778.70;1720059;83;21520;-85
2022/04/25 04:00:52;;;;;;;14.23;2.52;;;;;;;9.92;90.75;96775.19;1719714;82;21114;-85
2022/04/25 04:03:19;;;;;;;16.30;2.80;;;;;;;9.87;90.87;96778.06;1720064;83;21000;-85
2022/04/25 04:05:48;;;;;;;17.75;2.60;;;;;;;9.87;90.79;96759.53;1719876;83;21042;-85
2022/04/25 04:08:15;;;;;;;11.38;2.72;;;;;;;9.89;90.83;96765.60;1719490;83;21074;-85
2022/04/25 04:10:41;;;;;;;15.43;2.50;;;;;;;9.90;90.96;96764.69;1719758;83;21047;-85
2022/04/25 04:13:09;;;;;;;16.45;3.47;;;;;;;9.97;90.96;96765.72;1719779;83;21031;-84
2022/04/25 04:15:36;;;;;;;12.65;2.47;;;;;;;10.01;90.88;96764.66;1720160;83;21517;-85
2022/04/25 04:18:07;;;;;;;16.82;2.60;;;;;;;10.05;90.73;96762.23;1719572;83;21120;-85
2022/04/25 04:20:34;;;;;;;19.30;2.72;;;;;;;10.07;91.12;96758.19;1719465;83;21119;-85
2022/04/25 04:23:02;;;;;;;15.03;2.50;;;;;;;10.09;90.82;96766.45;1719705;83;21031;-85
2022/04/25 04:25:29;;;;;;;14.50;2.67;;;;;;;10.14;91.03;96771.05;1719383;83;21066;-85
2022/04/25 04:27:56;;;;;;;10.60;2.25;;;;;;;10.17;90.97;96767.41;1720146;83;21449;-85
2022/04/25 04:30:23;;;;;;;15.18;3.40;;;;;;;10.20;90.90;96766.40;1719750;83;21011;-85
2022/04/25 04:32:52;;;;;;;17.85;5.15;;;;;;;10.22;90.69;96764.55;1719932;83;20999;-85
2022/04/25 04:38:06;;;;;;;21.90;3.98;;;;;;;10.29;90.56;96764.64;1720003;83;20995;-85
2022/04/25 04:40:33;;;;;;;12.73;3.35;;;;;;;10.29;90.32;96749.62;1719787;83;20991;-85
2022/04/25 04:43:01;;;;;;;16.80;3.08;;;;;;;10.30;90.18;96747.84;1719878;83;21432;-85
2022/04/25 04:45:28;;;;;;;11.48;2.70;;;;;;;10.30;90.37;96749.16;1719906;83;21051;-85
2022/04/25 04:47:56;;;;;;;17.48;2.92;;;;;;;10.33;90.52;96746.34;1719717;83;21460;-84
2022/04/25 04:50:23;;;;;;;15.35;3.22;;;;;;;10.35;90.62;96748.47;1720082;83;20980;-85
2022/04/25 04:52:58;;;;;;;14.80;2.92;;;;;;;10.36;90.37;96744.02;1718911;83;21047;-84
2022/04/25 04:55:26;;;;;;;12.53;2.90;;;;;;;10.38;90.28;96747.46;1719820;83;21015;-84
2022/04/25 04:57:55;;;;;;;15.85;3.00;;;;;;;10.40;90.46;96737.64;1719546;83;21101;-85
2022/04/25 05:00:23;;;;;;;12.78;2.77;;;;;;;10.42;90.25;96740.60;1719249;83;21015;-84
2022/04/25 05:02:50;;;;;;;18.35;3.62;;;;;;;10.46;90.18;96736.03;1731694;82;21038;-84
2022/04/25 05:05:16;;;;;;;17.30;3.62;;;;;;;10.52;90.20;96737.53;1734106;83;21050;-84
2022/04/25 05:07:43;;;;;;;14.50;3.15;;;;;;;10.53;90.28;96727.32;1733856;83;21433;-84
2022/04/25 05:10:10;;;;;;;14.53;2.90;;;;;;;10.55;90.25;96727.63;1733997;83;21014;-85
2022/04/25 05:12:47;;;;;;;19.00;3.30;;;;;;;10.56;90.15;96729.34;1733663;83;21034;-85
2022/04/25 05:15:14;;;;;;;20.40;2.80;;;;;;;10.58;90.11;96723.97;1733423;83;21381;-85
2022/04/25 05:17:42;;;;;;;15.88;2.70;;;;;;;10.64;90.34;96732.09;1733841;83;21105;-84
2022/04/25 05:20:12;;;;;;;14.90;2.62;;;;;;;10.68;90.06;96731.84;1733658;83;21015;-84
2022/04/25 05:22:44;;;;;;;15.58;2.87;;;;;;;10.74;89.95;96737.77;1733388;83;21010;-84
2022/04/25 05:25:15;;;;;;;14.75;2.47;;;;;;;10.85;90.23;96733.25;1733728;83;21050;-84
2022/04/25 05:27:49;;;;;;;13.68;2.40;;;;;;;10.93;89.80;96733.24;1733680;83;21440;-84
2022/04/25 05:30:16;;;;;;;;;;;;;;;11.01;89.63;96734.17;1736768;83;20986;-85
2022/04/25 05:32:49;;;;;;;12.50;2.55;;;;;;;11.12;89.53;96732.78;1733791;83;20750;-84
2022/04/25 05:35:22;;;;;;;11.10;1.80;;;;;;;11.23;88.76;96731.74;1733866;83;21042;-84
2022/04/25 05:37:49;;;;;;;13.62;2.35;;;;;;;11.36;88.63;96726.64;1733818;83;21062;-84
2022/04/25 05:40:17;;;;;;;11.60;2.42;;;;;;;11.49;88.69;96730.36;1733840;83;21018;-84
2022/04/25 05:42:45;;;;;;;17.52;2.50;;;;;;;11.59;88.54;96721.41;1734083;83;21042;-84
2022/04/25 05:45:15;;;;;;;9.75;1.98;;;;;;;11.69;88.43;96726.23;1733932;83;21424;-84
2022/04/25 05:47:43;;;;;;;11.22;2.20;;;;;;;11.81;88.37;96728.22;1733607;83;21476;-84
2022/04/25 05:52:57;;;;;;;10.03;1.40;;;;;;;12.05;87.74;96715.02;1733825;83;21473;-84
2022/04/25 05:55:24;;;;;;;8.75;1.80;;;;;;;12.16;86.90;96709.11;1733979;83;21054;-84
2022/04/25 05:57:51;;;;;;;10.48;1.98;;;;;;;12.29;87.23;96712.75;1733470;83;21042;-84
2022/04/25 06:00:19;;;;;;;7.55;1.75;;;;;;;12.39;86.50;96712.64;1734087;83;21027;-84
2022/04/25 06:02:47;;;;;;;12.18;1.85;;;;;;;12.48;85.74;96704.59;1724020;83;21113;-84
2022/04/25 06:05:15;;;;;;;10.25;2.05;;;;;;;12.60;85.78;96716.78;1719414;83;21008;-84
2022/04/25 06:07:44;;;;;;;11.63;2.55;;;;;;;12.69;85.66;96709.59;1719306;83;21047;-84
2022/04/25 06:10:14;;;;;;;10.58;1.85;;;;;;;12.75;85.38;96697.75;1720035;83;21108;-84
2022/04/25 06:12:43;;;;;;;15.88;2.37;;;;;;;12.83;83.27;96698.63;1720220;83;20972;-84
2022/04/25 06:15:11;;;;;;;12.85;1.75;;;;;;;12.92;82.68;96706.05;1720286;83;20955;-84
2022/04/25 06:17:38;;;;;;;9.40;2.50;;;;;;;13.00;82.16;96700.27;1720083;83;21059;-84
2022/04/25 06:20:07;;;;;;;7.67;2.12;;;;;;;13.05;80.87;96692.87;1720199;83;21035;-84
2022/04/25 06:22:34;;;;;;;7.30;1.55;;;;;;;13.11;81.26;96701.80;1720131;83;21008;-84
2022/04/25 06:25:01;;;;;;;12.93;3.40;;;;;;;13.14;79.08;96697.62;1720005;83;21063;-84
2022/04/25 06:27:27;;;;;;;13.05;4.53;;;;;;;13.17;80.68;96692.10;1720289;83;20996;-84
2022/04/25 06:29:54;;;;;;;9.88;2.52;;;;;;;13.23;80.84;96700.20;1720304;83;21382;-84
2022/04/25 06:32:24;;;;;;;14.93;3.27;;;;;;;13.30;80.76;96694.02;1699655;83;21051;-84
2022/04/25 06:34:51;;;;;;;11.68;2.30;;;;;;;13.38;80.02;96689.55;1720342;83;21481;-84
2022/04/25 06:37:17;;;;;;;9.78;2.40;;;;;;;13.44;80.55;96682.52;1720388;83;21040;-84
2022/04/25 06:39:44;;;;;;;7.75;2.02;;;;;;;13.50;80.35;96675.99;1720442;83;21079;-84
2022/04/25 06:42:11;;;;;;;13.50;2.22;;;;;;;13.54;77.12;96678.35;1720443;83;21000;-84
2022/04/25 06:44:39;;;;;;;12.80;2.20;;;;;;;13.59;77.36;96677.59;1720628;83;21445;-84
2022/04/25 06:47:06;;;;;;;9.38;1.98;;;;;;;13.65;77.67;96672.82;1720347;83;21015;-84
2022/04/25 06:49:33;;;;;;;13.15;2.17;;;;;;;13.71;77.10;96671.96;1720497;83;21007;-84
2022/04/25 06:52:00;;;;;;;9.93;2.10;;;;;;;13.77;77.93;96668.53;1720692;83;21382;-84
2022/04/25 06:54:29;;;;;;;9.38;1.82;;;;;;;13.88;78.08;96668.71;1720257;83;20980;-84
2022/04/25 06:57:00;;;;;;;12.13;2.20;;;;;;;13.99;78.19;96681.31;1720567;83;21433;-85
2022/04/25 06:59:26;;;;;;;8.90;1.77;;;;;;;14.06;77.72;96676.45;1720360;83;21027;-84
2022/04/25 07:01:53;;;;;;;12.45;1.98;;;;;;;14.15;76.35;96668.35;1720160;82;21027;-85
2022/04/25 07:04:20;;;;;;;12.68;2.75;;;;;;;14.23;76.16;96662.02;1719569;83;21008;-84
2022/04/25 07:06:48;;;;;;;12.58;2.17;;;;;;;14.31;76.76;96669.04;1720203;83;21036;-84
2022/04/25 07:09:15;;;;;;;8.45;1.82;;;;;;;14.39;74.95;96667.20;1720457;83;21020;-84
2022/04/25 07:11:44;;;;;;;10.90;2.08;;;;;;;14.43;75.69;96655.37;1720319;83;21000;-84
2022/04/25 07:14:16;;;;;;;10.45;2.30;;;;;;;14.49;75.70;96658.12;1719537;83;21051;-84
2022/04/25 07:16:45;;;;;;;13.30;2.02;;;;;;;14.54;74.56;96662.66;1720347;83;21043;-84
2022/04/25 07:19:15;;;;;;;7.60;2.02;;;;;;;14.59;74.31;96663.67;1699946;83;20964;-84
2022/04/25 07:29:57;;;;;;;7.97;1.92;;;;;;;14.75;74.79;96644.83;1720267;83;21387;-85
2022/04/25 07:32:24;;;;;;;12.60;2.47;;;;;;;14.83;73.72;96643.00;1719757;83;20999;-86
2022/04/25 07:34:51;;;;;;;6.95;1.90;;;;;;;14.90;73.42;96637.13;1719936;83;21035;-83
2022/04/25 07:37:22;;;;;;;9.13;2.50;;;;;;;14.97;73.13;96636.23;1719451;83;20972;-83
2022/04/25 07:39:49;;;;;;;16.50;6.33;;;;;;;15.06;69.27;96637.39;1718632;83;21070;-85
2022/04/25 07:42:18;;;;;;;12.03;3.02;;;;;;;15.14;71.07;96639.52;1718620;83;21476;-84
2022/04/25 07:44:47;;;;;;;15.35;2.67;;;;;;;15.22;71.56;96641.19;1719775;83;21529;-84
2022/04/25 07:47:14;;;;;;;9.13;2.00;;;;;;;15.35;72.14;96636.30;1719785;83;20991;-84
2022/04/25 07:49:41;;;;;;;11.93;2.55;;;;;;;15.49;72.38;96642.00;1719538;83;21038;-83
2022/04/25 07:52:08;;;;;;;9.05;1.42;;;;;;;15.62;72.43;96632.63;1720125;83;21013;-81
2022/04/25 07:54:36;;;;;;;11.45;1.90;;;;;;;15.76;71.45;96626.28;1719703;83;21475;-81
2022/04/25 07:57:06;;;;;;;9.35;1.60;;;;;;;15.92;71.59;96622.01;1719463;83;20987;-81
2022/04/25 07:59:33;;;;;;;11.70;2.12;;;;;;;16.06;70.51;96617.00;1719634;83;21019;-82
2022/04/25 08:02:02;;;;;;;9.48;2.00;;;;;;;16.21;71.02;96615.88;1719664;82;21066;-81
2022/04/25 08:04:29;;;;;;;11.08;2.83;;;;;;;16.37;69.73;96606.70;1719838;83;21027;-82
2022/04/25 08:06:56;;;;;;;11.33;1.70;;;;;;;16.52;68.33;96607.84;1719588;83;21487;-82
2022/04/25 08:09:23;;;;;;;8.18;2.30;;;;;;;16.65;69.08;96597.05;1719771;83;21031;-82
2022/04/25 08:17:56;;;;;;;10.40;2.42;;;;;;;16.78;68.19;96589.80;1719473;83;21444;-82
2022/04/25 08:19:48;;;;;;;9.95;2.12;;;;;;;17.00;67.64;96587.63;1720047;83;20996;-82
2022/04/25 08:22:15;;;;;;;8.23;1.90;;;;;;;17.13;66.87;96586.68;1719746;83;21027;-82
2022/04/25 08:24:41;;;;;;;11.28;2.33;;;;;;;17.26;67.03;96579.86;1719802;83;21485;-82
2022/04/25 08:27:08;;;;;;;7.47;1.98;;;;;;;17.40;66.52;96579.61;1719558;83;20979;-82
2022/04/25 08:29:36;;;;;;;11.88;1.98;;;;;;;17.51;66.34;96578.75;1719956;83;21063;-82
2022/04/25 08:32:03;;;;;;;7.30;1.70;;;;;;;17.65;67.14;96572.27;1719715;83;21487;-82
2022/04/25 08:34:30;;;;;;;9.93;2.10;;;;;;;17.80;64.26;96575.53;1719901;83;21437;-82
2022/04/25 08:36:57;;;;;;;8.90;2.10;;;;;;;17.91;65.41;96573.31;1720019;83;20984;-82
2022/04/25 08:39:23;;;;;;;10.38;2.80;;;;;;;18.07;65.37;96572.91;1719957;83;21027;-82
2022/04/25 08:42:00;;;;;;;7.58;1.70;;;;;;;18.18;61.16;96569.34;1719991;83;21361;-82
2022/04/25 08:44:27;;;;;;;8.03;2.15;;;;;;;18.28;62.02;96562.72;1719986;83;21019;-82
2022/04/25 08:46:56;;;;;;;9.35;2.12;;;;;;;18.38;62.17;96568.63;1699508;83;20991;-82
2022/04/25 08:49:24;;;;;;;11.88;2.00;;;;;;;18.46;62.63;96567.02;1719925;83;21073;-82
2022/04/25 08:51:58;;;;;;;17.20;2.30;;;;;;;18.51;61.05;96584.05;1719905;83;21473;-80
2022/04/25 08:54:29;;;;;;;11.83;2.87;;;;;;;18.42;58.41;96582.14;1719982;83;20984;-82
2022/04/25 08:56:56;;;;;;;13.58;2.35;;;;;;;18.49;59.34;96597.23;1719671;83;21051;-82
2022/04/25 08:59:24;;;;;;;14.63;2.12;;;;;;;18.25;58.67;96593.81;1719964;83;21004;-82
2022/04/25 09:01:51;;;;;;;11.95;2.80;;;;;;;17.85;59.11;96581.84;1720014;83;21528;-82
2022/04/25 09:04:18;;;;;;;10.68;2.65;;;;;;;17.74;59.43;96580.53;1719942;83;21023;-81
2022/04/25 09:06:46;;;;;;;15.08;2.67;;;;;;;17.30;58.95;96609.94;1719759;83;21047;-80
2022/04/25 09:09:13;;;;;;;10.80;2.17;;;;;;;17.09;60.00;96606.63;1720062;83;21023;-80
2022/04/25 09:14:24;;;;;;;20.57;2.60;;;;;;;16.69;62.23;96618.09;1720045;83;21043;-81
2022/04/25 09:16:51;;;;;;;15.50;2.70;;;;;;;16.60;62.76;96629.48;1720012;83;21066;-81
2022/04/25 09:19:19;;;;;;;6.97;1.80;;;;;;;16.41;64.14;96630.91;1699611;83;21023;-81
2022/04/25 09:21:46;;;;;;;7.10;2.12;;;;;;;16.28;63.81;96636.30;1718971;83;21431;-81
2022/04/25 09:24:34;;;;;;;10.58;2.27;;;;;;;16.05;62.91;96646.03;1719509;83;20996;-81
2022/04/25 09:27:19;;;;;;;7.85;1.57;;;;;;;15.94;63.73;96645.48;1718753;83;21027;-82
2022/04/25 09:29:49;;;;;;;10.38;2.45;;;;;;;15.83;61.48;96633.73;1719396;83;20995;-82
2022/04/25 09:32:19;;;;;;;13.78;2.45;;;;;;;15.78;61.80;96624.36;1719385;83;21039;-82
2022/04/25 09:35:03;;;;;;;8.40;2.10;;;;;;;15.73;62.44;96614.00;1719820;83;21009;-82
2022/04/25 09:37:46;;;;;;;9.37;2.43;;;;;;;15.56;63.18;96607.21;1719983;83;20984;-83
2022/04/25 09:40:19;;;;;;;7.73;2.03;;;;;;;15.47;63.64;96612.74;1719694;83;20991;-82
2022/04/25 09:42:47;;;;;;;8.65;2.35;;;;;;;15.26;65.34;96624.47;1719663;83;21043;-82
2022/04/25 09:45:15;;;;;;;6.65;2.20;;;;;;;15.06;70.76;96650.73;1719585;83;21023;-80
2022/04/25 09:47:42;;;;;;;15.93;2.87;;;;;;;-148.38;100.00;114527.67;1719493;83;21472;-79
2022/04/25 09:50:13;;;;;;;12.88;3.30;;;;;;;14.05;91.07;96674.28;1719623;83;20980;-81
2022/04/25 09:52:59;;;;;;;24.50;8.58;;;;;;;12.73;100.00;96719.10;1719791;83;21008;-79
2022/04/25 09:55:31;;;;;;;13.30;3.35;;;;;;;12.45;100.00;96735.32;1719533;83;21011;-80
2022/04/25 09:57:58;;;;;;;16.52;3.60;;;;;;;-148.38;0.00;96722.02;1719613;83;21043;-80
2022/04/25 10:00:38;;;;;;;11.75;2.75;;;;;;;-148.38;100.00;114527.67;1699705;83;21039;-81
